Portada
METAR-TAF:

METAR-TAF

Aeroports :

Aeroport de Lampedusa

Lampedusa, Itàlia

latitud: 35-30N, longitud: 012-36E, altitud: 16 m

Observació

L'informe es va fer fa 59 minuts, a les 11:50 UTC
Vent 15 kt del Oest/Sud-Oest
Temperatura 16°C
Humitat 63%
Pressió 1007 hPa
Visibilitat 10 km o més
sense núvols per sota de 1500 mi sense presència de cumulonimbus.

METAR: LICD 131150Z 24015KT CAVOK 16/09 Q1007

Hora: 13:49 (12:49 UTC)

Pronòstic

L'informe es va fer fa 1 hora i 49 minuts, a les 11:00 UTC
Pronòstic vàlid del 13 a les 12 UTC al 14 a les 12 UTC
Vent 18 kt del Oest amb ràfegues de 28 kt
Visibilitat 10 km o més
Núvols disperses a una alçada de 2500 ft
Temporalment
l' 13 a les 12 UTC al 13 a les 18 UTC
xàfecs de pluja
Evolucionant progressivament
l' 13 a les 20 UTC al 13 a les 22 UTC
Vent 25 kt del Oest/Nord-Oest amb ràfegues de 40 kt

TAF: LICD 131100Z 1312/1412 27018G28KT 9999 SCT025 TEMPO 1312/1318 SHRA BECMG 1320/1322 30025G40KT

Observacions i pronòstics meteorològics de més de 4000 aeroports (METAR i TAF).

Les estacions disponibles són els punts grocs i vermells al mapa.

Posi el ratolí al punt desitjat per veure el nom de l'estació.

Feu clic per veure les observacions i els pronòstics meteorològics.

Per canviar el mapa: feu clic els botons verds amb una creu de color negre per apropar; al botó verd amb un guió per allunyar la imatge; o en les fletxes verdes per a mapes adjacents.


METAR-TAF: